logo
Search for airport 
image banner adimage banner adimage banner ad
image banner ad

EGNW08 - Haydock Park

Located in Newton-Le-Willows, United Kingdom

ICAO - , IATA -

Data provided by Airmate  

General information

Coordinates: N53°28'41" W2°37'18"
Elevation is 80 feet MSL.
 
View others Airports in England

Operational data

Special qualification required
Current time UTC:
Current local time:
Weather at : EGGP - Liverpool ( 22 km )
METAR: EGGP 070050Z 14004KT 100V180 CAVOK 01/M01 Q1038
TAF: TAF AMD EGGP 070000Z 0700/0724 17005KT 9999 FEW040 PROB40 TEMPO 0718/0724 8000
View NOTAMs / SUP AIP / TFR affecting this airport [VIEW]
Communications frequencies: [VIEW]

Runways:

RWY identifierQFULength (ft)Width (ft)SurfaceLDA (ft)
1026240GRASS
2826240GRASS

Airport contact information

Address: Newton-Le-Willows United Kingdom

Satellite view of EGNW08